sensor_id;sensor_type;location;lat;lon;timestamp;pressure;altitude;pressure_sealevel;temperature;humidity
59289;BME280;45056;47.602;9.886;2023-01-26T00:02:21;93118.41;;;-0.81;68.80
59289;BME280;45056;47.602;9.886;2023-01-26T00:04:49;93113.41;;;-0.82;68.84
59289;BME280;45056;47.602;9.886;2023-01-26T00:07:17;93115.72;;;-0.81;68.81
59289;BME280;45056;47.602;9.886;2023-01-26T00:09:46;93112.66;;;-0.79;68.70
59289;BME280;45056;47.602;9.886;2023-01-26T00:12:14;93111.97;;;-0.76;68.53
59289;BME280;45056;47.602;9.886;2023-01-26T00:14:42;93115.41;;;-0.76;68.52
59289;BME280;45056;47.602;9.886;2023-01-26T00:17:18;93109.69;;;-0.74;68.44
59289;BME280;45056;47.602;9.886;2023-01-26T00:19:57;93103.63;;;-0.71;68.57
59289;BME280;45056;47.602;9.886;2023-01-26T00:22:26;93100.56;;;-0.69;68.32
59289;BME280;45056;47.602;9.886;2023-01-26T00:24:55;93092.16;;;-0.71;68.52
59289;BME280;45056;47.602;9.886;2023-01-26T00:27:23;93097.50;;;-0.71;68.22
59289;BME280;45056;47.602;9.886;2023-01-26T00:29:51;93095.97;;;-0.73;68.35
59289;BME280;45056;47.602;9.886;2023-01-26T00:32:20;93083.00;;;-0.70;68.29
59289;BME280;45056;47.602;9.886;2023-01-26T00:34:48;93086.47;;;-0.66;68.41
59289;BME280;45056;47.602;9.886;2023-01-26T00:37:16;93086.88;;;-0.64;68.43
59289;BME280;45056;47.602;9.886;2023-01-26T00:39:44;93093.00;;;-0.64;68.08
59289;BME280;45056;47.602;9.886;2023-01-26T00:42:13;93082.31;;;-0.64;68.45
59289;BME280;45056;47.602;9.886;2023-01-26T00:44:42;93085.38;;;-0.62;68.25
59289;BME280;45056;47.602;9.886;2023-01-26T00:47:12;93078.16;;;-0.61;68.35
59289;BME280;45056;47.602;9.886;2023-01-26T00:49:43;93086.56;;;-0.59;68.25
59289;BME280;45056;47.602;9.886;2023-01-26T00:52:12;93077.81;;;-0.56;68.41
59289;BME280;45056;47.602;9.886;2023-01-26T00:54:40;93082.03;;;-0.55;68.40
59289;BME280;45056;47.602;9.886;2023-01-26T00:57:08;93082.44;;;-0.53;68.42
59289;BME280;45056;47.602;9.886;2023-01-26T00:59:38;93083.97;;;-0.52;68.25
59289;BME280;45056;47.602;9.886;2023-01-26T01:02:06;93083.97;;;-0.52;68.11
59289;BME280;45056;47.602;9.886;2023-01-26T01:04:34;93088.56;;;-0.49;68.26
59289;BME280;45056;47.602;9.886;2023-01-26T01:07:02;93092.38;;;-0.50;67.84
59289;BME280;45056;47.602;9.886;2023-01-26T01:09:30;93091.25;;;-0.49;68.04
59289;BME280;45056;47.602;9.886;2023-01-26T01:11:58;93096.22;;;-0.47;67.95
59289;BME280;45056;47.602;9.886;2023-01-26T01:14:26;93097.00;;;-0.47;68.22
59289;BME280;45056;47.602;9.886;2023-01-26T01:16:56;93105.41;;;-0.45;67.96
59289;BME280;45056;47.602;9.886;2023-01-26T01:19:24;93098.19;;;-0.44;67.82
59289;BME280;45056;47.602;9.886;2023-01-26T01:21:52;93101.59;;;-0.44;67.86
59289;BME280;45056;47.602;9.886;2023-01-26T01:24:21;93098.94;;;-0.44;67.89
59289;BME280;45056;47.602;9.886;2023-01-26T01:26:49;93105.78;;;-0.46;67.86
59289;BME280;45056;47.602;9.886;2023-01-26T01:29:17;93111.50;;;-0.48;67.65
59289;BME280;45056;47.602;9.886;2023-01-26T01:31:45;93114.56;;;-0.46;67.71
59289;BME280;45056;47.602;9.886;2023-01-26T01:34:14;93108.47;;;-0.46;67.65
59289;BME280;45056;47.602;9.886;2023-01-26T01:36:43;93103.88;;;-0.46;67.96
59289;BME280;45056;47.602;9.886;2023-01-26T01:39:11;93105.78;;;-0.46;68.11
59289;BME280;45056;47.602;9.886;2023-01-26T01:41:39;93110.00;;;-0.45;67.92
59289;BME280;45056;47.602;9.886;2023-01-26T01:44:16;93105.41;;;-0.45;67.96
59289;BME280;45056;47.602;9.886;2023-01-26T01:46:52;93097.41;;;-0.45;67.66
59289;BME280;45056;47.602;9.886;2023-01-26T01:49:29;93102.75;;;-0.45;67.91
59289;BME280;45056;47.602;9.886;2023-01-26T01:52:06;93098.53;;;-0.46;67.86
59289;BME280;45056;47.602;9.886;2023-01-26T01:54:43;93089.72;;;-0.50;67.89
59289;BME280;45056;47.602;9.886;2023-01-26T01:57:23;93088.53;;;-0.52;67.68
59289;BME280;45056;47.602;9.886;2023-01-26T02:00:00;93092.34;;;-0.53;68.08
59289;BME280;45056;47.602;9.886;2023-01-26T02:02:33;93089.31;;;-0.52;67.99
59289;BME280;45056;47.602;9.886;2023-01-26T02:05:12;93082.81;;;-0.51;68.08
59289;BME280;45056;47.602;9.886;2023-01-26T02:07:46;93082.81;;;-0.51;68.13
59289;BME280;45056;47.602;9.886;2023-01-26T02:10:17;93087.03;;;-0.50;67.99
59289;BME280;45056;47.602;9.886;2023-01-26T02:12:50;93085.50;;;-0.51;67.81
59289;BME280;45056;47.602;9.886;2023-01-26T02:15:22;93077.09;;;-0.53;67.99
59289;BME280;45056;47.602;9.886;2023-01-26T02:17:50;93074.00;;;-0.55;68.17
59289;BME280;45056;47.602;9.886;2023-01-26T02:20:28;93067.84;;;-0.59;68.07
59289;BME280;45056;47.602;9.886;2023-01-26T02:23:16;93069.31;;;-0.65;68.34
59289;BME280;45056;47.602;9.886;2023-01-26T02:26:04;93063.53;;;-0.71;68.37
59289;BME280;45056;47.602;9.886;2023-01-26T02:28:38;93060.06;;;-0.75;68.47
59289;BME280;45056;47.602;9.886;2023-01-26T02:31:09;93051.66;;;-0.77;68.76
59289;BME280;45056;47.602;9.886;2023-01-26T02:33:40;93044.00;;;-0.79;69.15
59289;BME280;45056;47.602;9.886;2023-01-26T02:36:17;93051.59;;;-0.81;68.76
59289;BME280;45056;47.602;9.886;2023-01-26T02:38:54;93046.22;;;-0.84;68.61
59289;BME280;45056;47.602;9.886;2023-01-26T02:41:44;93043.88;;;-0.90;69.01
59289;BME280;45056;47.602;9.886;2023-01-26T02:44:32;93035.84;;;-0.93;69.07
59289;BME280;45056;47.602;9.886;2023-01-26T02:47:00;93033.50;;;-0.95;69.08
59289;BME280;45056;47.602;9.886;2023-01-26T02:49:38;93032.34;;;-0.97;69.60
59289;BME280;45056;47.602;9.886;2023-01-26T02:52:17;93031.91;;;-1.03;69.46
59289;BME280;45056;47.602;9.886;2023-01-26T02:54:46;93025.34;;;-1.09;70.00
59289;BME280;45056;47.602;9.886;2023-01-26T02:57:34;93015.38;;;-1.12;69.87
59289;BME280;45056;47.602;9.886;2023-01-26T03:00:05;93015.75;;;-1.14;69.69
59289;BME280;45056;47.602;9.886;2023-01-26T03:02:35;93000.09;;;-1.16;70.12
59289;BME280;45056;47.602;9.886;2023-01-26T03:05:03;93013.50;;;-1.12;70.30
59289;BME280;45056;47.602;9.886;2023-01-26T03:07:31;93008.59;;;-1.06;69.96
59289;BME280;45056;47.602;9.886;2023-01-26T03:10:00;93007.50;;;-1.02;70.04
59289;BME280;45056;47.602;9.886;2023-01-26T03:12:28;93003.34;;;-0.99;70.02
59289;BME280;45056;47.602;9.886;2023-01-26T03:14:58;93002.59;;;-0.96;70.04
59289;BME280;45056;47.602;9.886;2023-01-26T03:17:44;93008.00;;;-0.92;69.65
59289;BME280;45056;47.602;9.886;2023-01-26T03:20:12;93004.19;;;-0.91;69.49
59289;BME280;45056;47.602;9.886;2023-01-26T03:22:58;92995.03;;;-0.90;69.46
59289;BME280;45056;47.602;9.886;2023-01-26T03:25:43;92995.44;;;-0.88;69.88
59289;BME280;45056;47.602;9.886;2023-01-26T03:28:28;93004.25;;;-0.84;69.46
59289;BME280;45056;47.602;9.886;2023-01-26T03:30:58;92995.50;;;-0.81;69.19
59289;BME280;45056;47.602;9.886;2023-01-26T03:33:26;92990.56;;;-0.79;68.87
59289;BME280;45056;47.602;9.886;2023-01-26T03:35:54;92983.31;;;-0.75;68.79
59289;BME280;45056;47.602;9.886;2023-01-26T03:38:22;92990.59;;;-0.71;68.49
59289;BME280;45056;47.602;9.886;2023-01-26T03:40:50;92995.22;;;-0.68;68.38
59289;BME280;45056;47.602;9.886;2023-01-26T03:43:35;93000.59;;;-0.65;68.14
59289;BME280;45056;47.602;9.886;2023-01-26T03:46:22;92995.25;;;-0.65;68.19
59289;BME280;45056;47.602;9.886;2023-01-26T03:49:07;92984.56;;;-0.65;68.16
59289;BME280;45056;47.602;9.886;2023-01-26T03:51:53;92983.00;;;-0.69;68.06
59289;BME280;45056;47.602;9.886;2023-01-26T03:54:38;92982.94;;;-0.77;68.56
59289;BME280;45056;47.602;9.886;2023-01-26T03:57:23;92972.19;;;-0.80;68.85
59289;BME280;45056;47.602;9.886;2023-01-26T03:59:51;92972.19;;;-0.80;68.71
59289;BME280;45056;47.602;9.886;2023-01-26T04:02:21;92967.63;;;-0.80;68.75
59289;BME280;45056;47.602;9.886;2023-01-26T04:05:07;92971.44;;;-0.81;69.13
59289;BME280;45056;47.602;9.886;2023-01-26T04:07:52;92970.66;;;-0.81;68.94
59289;BME280;45056;47.602;9.886;2023-01-26T04:10:38;92968.38;;;-0.83;69.11
59289;BME280;45056;47.602;9.886;2023-01-26T04:13:06;92957.66;;;-0.87;69.02
59289;BME280;45056;47.602;9.886;2023-01-26T04:15:51;92959.16;;;-0.89;69.12
59289;BME280;45056;47.602;9.886;2023-01-26T04:18:38;92961.34;;;-0.98;69.00
59289;BME280;45056;47.602;9.886;2023-01-26T04:21:23;92952.88;;;-1.08;69.56
59289;BME280;45056;47.602;9.886;2023-01-26T04:23:56;92948.66;;;-1.09;69.85
59289;BME280;45056;47.602;9.886;2023-01-26T04:26:27;92951.00;;;-1.04;69.58
59289;BME280;45056;47.602;9.886;2023-01-26T04:29:01;92956.00;;;-0.98;69.67
59289;BME280;45056;47.602;9.886;2023-01-26T04:31:32;92953.78;;;-0.93;69.77
59289;BME280;45056;47.602;9.886;2023-01-26T04:34:04;92953.44;;;-0.91;69.70
59289;BME280;45056;47.602;9.886;2023-01-26T04:36:34;92945.44;;;-0.88;69.53
59289;BME280;45056;47.602;9.886;2023-01-26T04:39:02;92949.28;;;-0.85;69.21
59289;BME280;45056;47.602;9.886;2023-01-26T04:41:31;92944.34;;;-0.83;69.31
59289;BME280;45056;47.602;9.886;2023-01-26T04:44:00;92943.94;;;-0.81;69.27
59289;BME280;45056;47.602;9.886;2023-01-26T04:46:28;92940.91;;;-0.80;69.12
59289;BME280;45056;47.602;9.886;2023-01-26T04:48:56;92947.06;;;-0.76;68.90
59289;BME280;45056;47.602;9.886;2023-01-26T04:51:26;92945.56;;;-0.73;68.46
59289;BME280;45056;47.602;9.886;2023-01-26T04:53:55;92947.09;;;-0.72;68.67
59289;BME280;45056;47.602;9.886;2023-01-26T04:56:25;92940.19;;;-0.77;68.35
59289;BME280;45056;47.602;9.886;2023-01-26T04:58:57;92945.13;;;-0.79;68.19
59289;BME280;45056;47.602;9.886;2023-01-26T05:01:28;92942.41;;;-0.82;68.39
59289;BME280;45056;47.602;9.886;2023-01-26T05:03:58;92944.34;;;-0.83;68.61
59289;BME280;45056;47.602;9.886;2023-01-26T05:06:29;92940.53;;;-0.82;68.63
59289;BME280;45056;47.602;9.886;2023-01-26T05:08:58;92943.94;;;-0.81;68.30
59289;BME280;45056;47.602;9.886;2023-01-26T05:11:27;92952.75;;;-0.81;68.42
59289;BME280;45056;47.602;9.886;2023-01-26T05:13:55;92946.63;;;-0.81;68.13
59289;BME280;45056;47.602;9.886;2023-01-26T05:16:23;92944.78;;;-0.77;68.44
59289;BME280;45056;47.602;9.886;2023-01-26T05:18:52;92948.59;;;-0.75;68.00
59289;BME280;45056;47.602;9.886;2023-01-26T05:21:20;92944.03;;;-0.74;68.24
59289;BME280;45056;47.602;9.886;2023-01-26T05:23:51;92939.03;;;-0.76;67.98
59289;BME280;45056;47.602;9.886;2023-01-26T05:26:19;92944.78;;;-0.77;68.00
59289;BME280;45056;47.602;9.886;2023-01-26T05:28:48;92946.22;;;-0.83;67.88
59289;BME280;45056;47.602;9.886;2023-01-26T05:31:16;92945.03;;;-0.90;67.69
59289;BME280;45056;47.602;9.886;2023-01-26T05:33:44;92944.22;;;-0.94;68.19
59289;BME280;45056;47.602;9.886;2023-01-26T05:36:12;92944.22;;;-0.94;67.64
59289;BME280;45056;47.602;9.886;2023-01-26T05:38:40;92937.00;;;-0.93;68.06
59289;BME280;45056;47.602;9.886;2023-01-26T05:41:09;92941.97;;;-0.92;67.96
59289;BME280;45056;47.602;9.886;2023-01-26T05:43:37;92939.34;;;-0.88;68.13
59289;BME280;45056;47.602;9.886;2023-01-26T05:46:05;92936.66;;;-0.88;67.66
59289;BME280;45056;47.602;9.886;2023-01-26T05:48:33;92946.56;;;-0.89;67.71
59289;BME280;45056;47.602;9.886;2023-01-26T05:51:01;92948.88;;;-0.87;67.63
59289;BME280;45056;47.602;9.886;2023-01-26T05:53:30;92941.25;;;-0.85;67.46
59289;BME280;45056;47.602;9.886;2023-01-26T05:55:59;92946.22;;;-0.83;67.81
59289;BME280;45056;47.602;9.886;2023-01-26T05:58:28;92943.94;;;-0.85;67.60
59289;BME280;45056;47.602;9.886;2023-01-26T06:00:56;92945.47;;;-0.84;67.61
59289;BME280;45056;47.602;9.886;2023-01-26T06:03:24;92956.56;;;-0.82;67.74
59289;BME280;45056;47.602;9.886;2023-01-26T06:05:53;92950.06;;;-0.81;67.87
59289;BME280;45056;47.602;9.886;2023-01-26T06:08:21;92948.56;;;-0.78;67.48
59289;BME280;45056;47.602;9.886;2023-01-26T06:10:49;92946.66;;;-0.78;67.66
59289;BME280;45056;47.602;9.886;2023-01-26T06:13:17;92944.00;;;-0.78;67.66
59289;BME280;45056;47.602;9.886;2023-01-26T06:15:46;92948.19;;;-0.77;67.69
59289;BME280;45056;47.602;9.886;2023-01-26T06:18:14;92951.66;;;-0.76;67.26
59289;BME280;45056;47.602;9.886;2023-01-26T06:20:42;92954.72;;;-0.74;66.94
59289;BME280;45056;47.602;9.886;2023-01-26T06:23:10;92953.94;;;-0.75;67.31
59289;BME280;45056;47.602;9.886;2023-01-26T06:25:39;92948.59;;;-0.75;67.08
59289;BME280;45056;47.602;9.886;2023-01-26T06:28:07;92949.00;;;-0.73;67.49
59289;BME280;45056;47.602;9.886;2023-01-26T06:30:35;92950.53;;;-0.71;67.00
59289;BME280;45056;47.602;9.886;2023-01-26T06:33:04;92954.72;;;-0.70;67.17
59289;BME280;45056;47.602;9.886;2023-01-26T06:35:33;92954.34;;;-0.73;67.02
59289;BME280;45056;47.602;9.886;2023-01-26T06:38:02;92951.25;;;-0.75;66.70
59289;BME280;45056;47.602;9.886;2023-01-26T06:40:30;92952.81;;;-0.74;66.78
59289;BME280;45056;47.602;9.886;2023-01-26T06:42:58;92944.78;;;-0.74;66.67
59289;BME280;45056;47.602;9.886;2023-01-26T06:45:26;92951.25;;;-0.75;66.62
59289;BME280;45056;47.602;9.886;2023-01-26T06:47:54;92958.94;;;-0.73;67.04
59289;BME280;45056;47.602;9.886;2023-01-26T06:50:25;92959.31;;;-0.71;66.93
59289;BME280;45056;47.602;9.886;2023-01-26T06:53:02;92958.19;;;-0.70;66.42
59289;BME280;45056;47.602;9.886;2023-01-26T06:55:43;92960.84;;;-0.70;66.50
59289;BME280;45056;47.602;9.886;2023-01-26T06:58:12;92965.81;;;-0.68;66.59
59289;BME280;45056;47.602;9.886;2023-01-26T07:00:40;92964.31;;;-0.66;66.67
59289;BME280;45056;47.602;9.886;2023-01-26T07:03:08;92958.59;;;-0.64;66.75
59289;BME280;45056;47.602;9.886;2023-01-26T07:05:38;92956.31;;;-0.66;66.60
59289;BME280;45056;47.602;9.886;2023-01-26T07:08:08;92962.41;;;-0.65;66.37
59289;BME280;45056;47.602;9.886;2023-01-26T07:10:36;92955.53;;;-0.66;66.45
59289;BME280;45056;47.602;9.886;2023-01-26T07:13:05;92951.31;;;-0.67;66.68
59289;BME280;45056;47.602;9.886;2023-01-26T07:15:33;92952.47;;;-0.68;66.72
59289;BME280;45056;47.602;9.886;2023-01-26T07:18:01;92947.50;;;-0.70;66.60
59289;BME280;45056;47.602;9.886;2023-01-26T07:20:29;92948.25;;;-0.69;66.85
59289;BME280;45056;47.602;9.886;2023-01-26T07:22:59;92947.50;;;-0.70;66.59
59289;BME280;45056;47.602;9.886;2023-01-26T07:25:27;92950.19;;;-0.66;67.02
59289;BME280;45056;47.602;9.886;2023-01-26T07:28:06;92946.78;;;-0.63;66.94
59289;BME280;45056;47.602;9.886;2023-01-26T07:38:57;92948.38;;;-0.55;66.52
59289;BME280;45056;47.602;9.886;2023-01-26T07:42:05;92950.25;;;-0.59;66.53
59289;BME280;45056;47.602;9.886;2023-01-26T07:46:04;92953.25;;;-0.64;66.86
59289;BME280;45056;47.602;9.886;2023-01-26T07:49:28;92940.97;;;-0.76;66.93
59289;BME280;45056;47.602;9.886;2023-01-26T07:53:13;92933.66;;;-0.83;67.54
59289;BME280;45056;47.602;9.886;2023-01-26T07:56:21;92934.78;;;-0.84;67.71
59289;BME280;45056;47.602;9.886;2023-01-26T07:59:24;92931.34;;;-0.84;67.75
59289;BME280;45056;47.602;9.886;2023-01-26T08:02:38;92932.50;;;-0.82;67.50
59289;BME280;45056;47.602;9.886;2023-01-26T08:06:03;92926.03;;;-0.81;67.49
59289;BME280;45056;47.602;9.886;2023-01-26T08:15:48;92927.91;;;-0.85;67.54
59289;BME280;45056;47.602;9.886;2023-01-26T08:23:57;92934.34;;;-0.93;67.81
59289;BME280;45056;47.602;9.886;2023-01-26T08:26:27;92927.09;;;-0.89;67.89
59289;BME280;45056;47.602;9.886;2023-01-26T08:29:15;92930.94;;;-0.87;67.58
59289;BME280;45056;47.602;9.886;2023-01-26T08:31:53;92928.66;;;-0.88;67.63
59289;BME280;45056;47.602;9.886;2023-01-26T08:34:43;92930.94;;;-0.87;67.61
59289;BME280;45056;47.602;9.886;2023-01-26T08:38:46;92931.34;;;-0.84;67.69
59289;BME280;45056;47.602;9.886;2023-01-26T08:41:16;92933.66;;;-0.83;67.48
59289;BME280;45056;47.602;9.886;2023-01-26T08:43:50;92924.84;;;-0.83;67.18
59289;BME280;45056;47.602;9.886;2023-01-26T08:46:28;92928.31;;;-0.79;67.09
59289;BME280;45056;47.602;9.886;2023-01-26T08:48:57;92919.59;;;-0.76;66.97
59289;BME280;45056;47.602;9.886;2023-01-26T08:51:28;92925.69;;;-0.76;67.18
59289;BME280;45056;47.602;9.886;2023-01-26T08:53:57;92924.94;;;-0.73;67.00
59289;BME280;45056;47.602;9.886;2023-01-26T09:00:53;92921.16;;;-0.68;67.15
59289;BME280;45056;47.602;9.886;2023-01-26T09:03:44;92915.84;;;-0.64;67.10
59289;BME280;45056;47.602;9.886;2023-01-26T09:06:20;92913.19;;;-0.61;67.04
59289;BME280;45056;47.602;9.886;2023-01-26T09:09:43;92916.31;;;-0.55;66.63
59289;BME280;45056;47.602;9.886;2023-01-26T09:12:29;92912.88;;;-0.52;66.59
59289;BME280;45056;47.602;9.886;2023-01-26T09:14:58;92917.50;;;-0.49;66.47
59289;BME280;45056;47.602;9.886;2023-01-26T09:17:26;92915.22;;;-0.47;65.93
59289;BME280;45056;47.602;9.886;2023-01-26T09:20:16;92913.28;;;-0.50;65.83
59289;BME280;45056;47.602;9.886;2023-01-26T09:22:48;92916.69;;;-0.53;65.74
59289;BME280;45056;47.602;9.886;2023-01-26T09:25:30;92921.66;;;-0.51;65.93
59289;BME280;45056;47.602;9.886;2023-01-26T09:28:12;92916.00;;;-0.46;65.75
59289;BME280;45056;47.602;9.886;2023-01-26T09:30:44;92925.56;;;-0.41;66.00
59289;BME280;45056;47.602;9.886;2023-01-26T09:33:33;92926.72;;;-0.39;65.55
59289;BME280;45056;47.602;9.886;2023-01-26T09:36:07;92921.78;;;-0.37;66.04
59289;BME280;45056;47.602;9.886;2023-01-26T09:43:20;92922.97;;;-0.31;65.81
59289;BME280;45056;47.602;9.886;2023-01-26T09:46:07;92922.22;;;-0.27;65.94
59289;BME280;45056;47.602;9.886;2023-01-26T09:49:40;92927.59;;;-0.24;65.84
59289;BME280;45056;47.602;9.886;2023-01-26T09:57:11;92912.22;;;-0.34;65.45
59289;BME280;45056;47.602;9.886;2023-01-26T09:59:52;92912.22;;;-0.38;65.53
59289;BME280;45056;47.602;9.886;2023-01-26T10:03:12;92923.66;;;-0.37;65.80
59289;BME280;45056;47.602;9.886;2023-01-26T10:05:56;92922.91;;;-0.38;65.72
59289;BME280;45056;47.602;9.886;2023-01-26T10:08:34;92924.81;;;-0.38;65.90
59289;BME280;45056;47.602;9.886;2023-01-26T10:11:14;92911.03;;;-0.44;65.84
59289;BME280;45056;47.602;9.886;2023-01-26T10:14:06;92911.03;;;-0.44;65.93
59289;BME280;45056;47.602;9.886;2023-01-26T10:17:14;92904.56;;;-0.43;65.93
59289;BME280;45056;47.602;9.886;2023-01-26T10:20:02;92913.72;;;-0.40;65.92
59289;BME280;45056;47.602;9.886;2023-01-26T10:22:43;92900.00;;;-0.39;65.89
59289;BME280;45056;47.602;9.886;2023-01-26T10:25:18;92909.94;;;-0.36;65.85
59289;BME280;45056;47.602;9.886;2023-01-26T10:27:49;92902.31;;;-0.34;65.64
59289;BME280;45056;47.602;9.886;2023-01-26T10:30:41;92907.69;;;-0.30;65.47
59289;BME280;45056;47.602;9.886;2023-01-26T10:34:28;92895.50;;;-0.24;65.61
59289;BME280;45056;47.602;9.886;2023-01-26T10:37:43;92905.06;;;-0.23;65.27
59289;BME280;45056;47.602;9.886;2023-01-26T10:40:13;92893.97;;;-0.21;65.82
59289;BME280;45056;47.602;9.886;2023-01-26T10:42:54;92899.34;;;-0.18;65.44
59289;BME280;45056;47.602;9.886;2023-01-26T10:45:27;92904.69;;;-0.18;65.19
59289;BME280;45056;47.602;9.886;2023-01-26T10:48:16;92906.22;;;-0.17;65.52
59289;BME280;45056;47.602;9.886;2023-01-26T10:50:47;92908.53;;;-0.15;65.42
59289;BME280;45056;47.602;9.886;2023-01-26T10:53:18;92909.34;;;-0.11;65.43
59289;BME280;45056;47.602;9.886;2023-01-26T10:56:00;92902.84;;;-0.10;65.12
59289;BME280;45056;47.602;9.886;2023-01-26T10:58:46;92906.66;;;-0.11;65.09
59289;BME280;45056;47.602;9.886;2023-01-26T11:01:17;92908.53;;;-0.11;64.88
59289;BME280;45056;47.602;9.886;2023-01-26T11:04:03;92910.44;;;-0.16;64.62
59289;BME280;45056;47.602;9.886;2023-01-26T11:06:33;92900.81;;;-0.27;64.78
59289;BME280;45056;47.602;9.886;2023-01-26T11:09:17;92894.69;;;-0.32;65.39
59289;BME280;45056;47.602;9.886;2023-01-26T11:11:59;92899.69;;;-0.30;65.59
59289;BME280;45056;47.602;9.886;2023-01-26T11:14:30;92905.41;;;-0.28;65.48
59289;BME280;45056;47.602;9.886;2023-01-26T11:17:13;92902.00;;;-0.25;65.31
59289;BME280;45056;47.602;9.886;2023-01-26T11:20:05;92905.06;;;-0.23;65.09
59289;BME280;45056;47.602;9.886;2023-01-26T11:23:00;92903.91;;;-0.22;65.52
59289;BME280;45056;47.602;9.886;2023-01-26T11:25:47;92898.56;;;-0.18;65.14
59289;BME280;45056;47.602;9.886;2023-01-26T11:28:44;92900.88;;;-0.17;65.00
59289;BME280;45056;47.602;9.886;2023-01-26T11:31:39;92900.13;;;-0.13;65.13
59289;BME280;45056;47.602;9.886;2023-01-26T11:34:29;92897.84;;;-0.11;64.73
59289;BME280;45056;47.602;9.886;2023-01-26T11:37:34;92892.13;;;-0.06;64.68
59289;BME280;45056;47.602;9.886;2023-01-26T11:40:28;92889.47;;;-0.06;64.37
59289;BME280;45056;47.602;9.886;2023-01-26T11:46:36;92881.06;;;-0.12;64.16
59289;BME280;45056;47.602;9.886;2023-01-26T11:49:43;92884.47;;;-0.11;64.27
59289;BME280;45056;47.602;9.886;2023-01-26T11:52:34;92876.84;;;-0.09;63.98
59289;BME280;45056;47.602;9.886;2023-01-26T11:55:25;92878.38;;;-0.12;63.94
59289;BME280;45056;47.602;9.886;2023-01-26T11:58:16;92876.47;;;-0.11;64.06
59289;BME280;45056;47.602;9.886;2023-01-26T12:00:59;92876.84;;;-0.09;63.74
59289;BME280;45056;47.602;9.886;2023-01-26T12:03:37;92875.69;;;-0.08;64.04
59289;BME280;45056;47.602;9.886;2023-01-26T12:06:16;92879.16;;;-0.04;63.80
59289;BME280;45056;47.602;9.886;2023-01-26T12:08:52;92874.97;;;-0.02;63.78
59289;BME280;45056;47.602;9.886;2023-01-26T12:11:32;92871.53;;;0.02;63.95
59289;BME280;45056;47.602;9.886;2023-01-26T12:14:15;92871.94;;;0.04;63.80
59289;BME280;45056;47.602;9.886;2023-01-26T12:17:14;92870.81;;;0.08;63.94
59289;BME280;45056;47.602;9.886;2023-01-26T12:19:59;92863.56;;;0.12;63.67
59289;BME280;45056;47.602;9.886;2023-01-26T12:22:36;92862.81;;;0.16;63.20
59289;BME280;45056;47.602;9.886;2023-01-26T12:25:21;92862.03;;;0.15;63.25
59289;BME280;45056;47.602;9.886;2023-01-26T12:28:02;92855.16;;;0.10;62.45
59289;BME280;45056;47.602;9.886;2023-01-26T12:30:47;92861.25;;;0.07;62.88
59289;BME280;45056;47.602;9.886;2023-01-26T12:33:22;92854.00;;;0.04;62.55
59289;BME280;45056;47.602;9.886;2023-01-26T12:36:14;92852.81;;;0.02;62.84
59289;BME280;45056;47.602;9.886;2023-01-26T12:39:02;92853.22;;;0.00;62.89
59289;BME280;45056;47.602;9.886;2023-01-26T12:44:53;92851.25;;;-0.03;62.41
59289;BME280;45056;47.602;9.886;2023-01-26T12:47:31;92850.13;;;-0.06;62.23
59289;BME280;45056;47.602;9.886;2023-01-26T12:50:13;92856.97;;;-0.08;62.24
59289;BME280;45056;47.602;9.886;2023-01-26T12:52:55;92854.31;;;-0.12;62.35
59289;BME280;45056;47.602;9.886;2023-01-26T12:55:31;92852.00;;;-0.13;62.19
59289;BME280;45056;47.602;9.886;2023-01-26T12:58:13;92849.31;;;-0.13;62.25
59289;BME280;45056;47.602;9.886;2023-01-26T13:01:02;92839.00;;;-0.11;62.75
59289;BME280;45056;47.602;9.886;2023-01-26T13:03:39;92842.81;;;-0.12;62.13
59289;BME280;45056;47.602;9.886;2023-01-26T13:06:21;92851.25;;;-0.14;62.65
59289;BME280;45056;47.602;9.886;2023-01-26T13:08:59;92838.63;;;-0.13;62.74
59289;BME280;45056;47.602;9.886;2023-01-26T13:11:43;92847.41;;;-0.09;62.88
59289;BME280;45056;47.602;9.886;2023-01-26T13:17:50;92830.66;;;-0.03;62.87
59289;BME280;45056;47.602;9.886;2023-01-26T13:20:40;92824.16;;;-0.02;62.70
59289;BME280;45056;47.602;9.886;2023-01-26T13:23:37;92821.13;;;0.00;62.31
59289;BME280;45056;47.602;9.886;2023-01-26T13:29:28;92820.72;;;0.02;62.27
59289;BME280;45056;47.602;9.886;2023-01-26T13:35:32;92829.91;;;0.04;61.95
59289;BME280;45056;47.602;9.886;2023-01-26T13:38:10;92832.59;;;0.04;61.99
59289;BME280;45056;47.602;9.886;2023-01-26T13:40:46;92833.72;;;0.03;61.83
59289;BME280;45056;47.602;9.886;2023-01-26T13:43:26;92828.00;;;0.01;61.83
59289;BME280;45056;47.602;9.886;2023-01-26T13:46:14;92831.41;;;-0.02;61.77
59289;BME280;45056;47.602;9.886;2023-01-26T13:48:52;92824.50;;;-0.03;62.05
59289;BME280;45056;47.602;9.886;2023-01-26T13:51:24;92831.00;;;-0.04;62.00
59289;BME280;45056;47.602;9.886;2023-01-26T13:54:01;92826.44;;;-0.04;61.81
59289;BME280;45056;47.602;9.886;2023-01-26T13:56:33;92826.03;;;-0.02;61.81
59289;BME280;45056;47.602;9.886;2023-01-26T13:59:08;92832.19;;;-0.02;62.00
59289;BME280;45056;47.602;9.886;2023-01-26T14:01:42;92833.72;;;-0.01;61.91
59289;BME280;45056;47.602;9.886;2023-01-26T14:04:15;92825.69;;;-0.01;61.93
59289;BME280;45056;47.602;9.886;2023-01-26T14:06:48;92822.66;;;0.01;61.61
59289;BME280;45056;47.602;9.886;2023-01-26T14:09:21;92834.09;;;0.02;61.78
59289;BME280;45056;47.602;9.886;2023-01-26T14:11:57;92822.66;;;0.01;61.94
59289;BME280;45056;47.602;9.886;2023-01-26T14:14:29;92831.06;;;0.03;62.03
59289;BME280;45056;47.602;9.886;2023-01-26T14:17:05;92823.78;;;0.04;61.79
59289;BME280;45056;47.602;9.886;2023-01-26T14:19:39;92832.94;;;0.03;61.73
59289;BME280;45056;47.602;9.886;2023-01-26T14:22:12;92824.91;;;-0.05;60.92
59289;BME280;45056;47.602;9.886;2023-01-26T14:24:41;92823.72;;;-0.15;61.11
59289;BME280;45056;47.602;9.886;2023-01-26T14:27:27;92835.13;;;-0.21;61.67
59289;BME280;45056;47.602;9.886;2023-01-26T14:29:58;92835.13;;;-0.25;61.79
59289;BME280;45056;47.602;9.886;2023-01-26T14:32:27;92841.25;;;-0.24;62.10
59289;BME280;45056;47.602;9.886;2023-01-26T14:34:59;92839.31;;;-0.27;62.04
59289;BME280;45056;47.602;9.886;2023-01-26T14:37:27;92836.22;;;-0.37;61.87
59289;BME280;45056;47.602;9.886;2023-01-26T14:40:13;92841.09;;;-0.53;61.52
59289;BME280;45056;47.602;9.886;2023-01-26T14:42:50;92833.78;;;-0.64;62.15
59289;BME280;45056;47.602;9.886;2023-01-26T14:45:27;92844.09;;;-0.62;62.36
59289;BME280;45056;47.602;9.886;2023-01-26T14:48:02;92838.38;;;-0.61;62.47